Auburn, Alabama
Current Conditions -  °F | °C
As of 9:35 PM on Sunday 21 Dec 2014 (Local Time) from KAUO Reporting Station
Overcast Overcast  
Wind Chill:   Ceiling: 400
Heat Index:   Visibility: 5mi
Dew Point:   Wind: 8mph
Humidity: 87%   Direction: 100°E
Pressure: 30.08"   Gusts: NA
Location:  32.61°N, 85.48°W
Report Text: KAUO 220335Z AUTO 10007KT 5SM OVC004 09/07 A3008 RMK AO1
Loading
Personal Weather Stations






























Interactive Weather Map New forecast layout! Learn more

10-Day Weather Forecast

Advertisements
Track Severe Weather on mobile